sensor_id;sensor_type;location;lat;lon;timestamp;P1;durP1;ratioP1;P2;durP2;ratioP2
59273;SDS011;45044;41.572;24.730;2023-07-31T00:00:14;10.13;;;8.50;;
59273;SDS011;45044;41.572;24.730;2023-07-31T00:02:41;9.70;;;8.55;;
59273;SDS011;45044;41.572;24.730;2023-07-31T00:05:08;10.57;;;8.95;;
59273;SDS011;45044;41.572;24.730;2023-07-31T00:07:36;10.52;;;8.70;;
59273;SDS011;45044;41.572;24.730;2023-07-31T00:10:03;9.18;;;8.23;;
59273;SDS011;45044;41.572;24.730;2023-07-31T00:12:30;10.43;;;8.40;;
59273;SDS011;45044;41.572;24.730;2023-07-31T00:14:56;9.02;;;7.90;;
59273;SDS011;45044;41.572;24.730;2023-07-31T00:17:23;11.90;;;8.73;;
59273;SDS011;45044;41.572;24.730;2023-07-31T00:19:50;10.55;;;8.35;;
59273;SDS011;45044;41.572;24.730;2023-07-31T00:22:17;9.88;;;8.88;;
59273;SDS011;45044;41.572;24.730;2023-07-31T00:24:43;9.55;;;8.15;;
59273;SDS011;45044;41.572;24.730;2023-07-31T00:27:10;10.55;;;9.02;;
59273;SDS011;45044;41.572;24.730;2023-07-31T00:29:37;13.95;;;9.30;;
59273;SDS011;45044;41.572;24.730;2023-07-31T00:32:04;11.73;;;9.60;;
59273;SDS011;45044;41.572;24.730;2023-07-31T00:34:31;10.27;;;8.60;;
59273;SDS011;45044;41.572;24.730;2023-07-31T00:36:58;10.40;;;9.32;;
59273;SDS011;45044;41.572;24.730;2023-07-31T00:39:25;9.93;;;8.75;;
59273;SDS011;45044;41.572;24.730;2023-07-31T00:41:51;9.15;;;8.25;;
59273;SDS011;45044;41.572;24.730;2023-07-31T00:44:18;10.88;;;8.60;;
59273;SDS011;45044;41.572;24.730;2023-07-31T00:46:45;11.52;;;9.85;;
59273;SDS011;45044;41.572;24.730;2023-07-31T00:49:13;10.57;;;8.65;;
59273;SDS011;45044;41.572;24.730;2023-07-31T00:51:40;12.00;;;9.05;;
59273;SDS011;45044;41.572;24.730;2023-07-31T00:54:07;10.10;;;8.88;;
59273;SDS011;45044;41.572;24.730;2023-07-31T00:56:34;10.55;;;8.50;;
59273;SDS011;45044;41.572;24.730;2023-07-31T00:59:04;10.98;;;9.18;;
59273;SDS011;45044;41.572;24.730;2023-07-31T01:01:30;10.52;;;9.32;;
59273;SDS011;45044;41.572;24.730;2023-07-31T01:03:57;10.10;;;8.45;;
59273;SDS011;45044;41.572;24.730;2023-07-31T01:09:57;11.95;;;8.60;;
59273;SDS011;45044;41.572;24.730;2023-07-31T01:12:14;10.55;;;9.20;;
59273;SDS011;45044;41.572;24.730;2023-07-31T01:15:01;10.40;;;8.65;;
59273;SDS011;45044;41.572;24.730;2023-07-31T01:17:29;10.90;;;8.75;;
59273;SDS011;45044;41.572;24.730;2023-07-31T01:19:56;10.02;;;9.00;;
59273;SDS011;45044;41.572;24.730;2023-07-31T01:22:39;11.23;;;9.15;;
59273;SDS011;45044;41.572;24.730;2023-07-31T01:30:55;11.88;;;8.52;;
59273;SDS011;45044;41.572;24.730;2023-07-31T01:33:26;10.48;;;8.85;;
59273;SDS011;45044;41.572;24.730;2023-07-31T01:35:54;10.15;;;8.85;;
59273;SDS011;45044;41.572;24.730;2023-07-31T01:38:22;12.73;;;9.15;;
59273;SDS011;45044;41.572;24.730;2023-07-31T01:40:52;10.45;;;9.23;;
59273;SDS011;45044;41.572;24.730;2023-07-31T01:43:20;9.98;;;8.63;;
59273;SDS011;45044;41.572;24.730;2023-07-31T01:45:46;12.85;;;9.73;;
59273;SDS011;45044;41.572;24.730;2023-07-31T01:48:13;9.68;;;8.55;;
59273;SDS011;45044;41.572;24.730;2023-07-31T01:50:40;11.15;;;9.32;;
59273;SDS011;45044;41.572;24.730;2023-07-31T01:53:07;11.02;;;9.85;;
59273;SDS011;45044;41.572;24.730;2023-07-31T01:55:33;10.77;;;9.63;;
59273;SDS011;45044;41.572;24.730;2023-07-31T01:58:00;11.10;;;9.90;;
59273;SDS011;45044;41.572;24.730;2023-07-31T02:00:27;10.57;;;9.57;;
59273;SDS011;45044;41.572;24.730;2023-07-31T02:02:54;10.45;;;9.35;;
59273;SDS011;45044;41.572;24.730;2023-07-31T02:05:21;10.48;;;9.35;;
59273;SDS011;45044;41.572;24.730;2023-07-31T02:07:47;11.27;;;9.40;;
59273;SDS011;45044;41.572;24.730;2023-07-31T02:10:14;12.02;;;9.55;;
59273;SDS011;45044;41.572;24.730;2023-07-31T02:12:41;11.75;;;10.02;;
59273;SDS011;45044;41.572;24.730;2023-07-31T02:15:08;10.27;;;9.20;;
59273;SDS011;45044;41.572;24.730;2023-07-31T02:17:35;11.35;;;9.65;;
59273;SDS011;45044;41.572;24.730;2023-07-31T02:20:02;12.68;;;10.50;;
59273;SDS011;45044;41.572;24.730;2023-07-31T02:22:29;11.45;;;10.25;;
59273;SDS011;45044;41.572;24.730;2023-07-31T02:24:56;11.57;;;9.60;;
59273;SDS011;45044;41.572;24.730;2023-07-31T02:27:22;13.50;;;9.50;;
59273;SDS011;45044;41.572;24.730;2023-07-31T02:29:53;11.43;;;9.60;;
59273;SDS011;45044;41.572;24.730;2023-07-31T02:32:21;11.07;;;9.95;;
59273;SDS011;45044;41.572;24.730;2023-07-31T02:34:47;11.13;;;9.82;;
59273;SDS011;45044;41.572;24.730;2023-07-31T02:37:14;10.95;;;9.57;;
59273;SDS011;45044;41.572;24.730;2023-07-31T02:39:41;11.02;;;9.38;;
59273;SDS011;45044;41.572;24.730;2023-07-31T02:42:08;11.23;;;10.00;;
59273;SDS011;45044;41.572;24.730;2023-07-31T02:44:34;17.52;;;11.10;;
59273;SDS011;45044;41.572;24.730;2023-07-31T02:47:01;13.80;;;10.13;;
59273;SDS011;45044;41.572;24.730;2023-07-31T02:49:29;14.10;;;10.77;;
59273;SDS011;45044;41.572;24.730;2023-07-31T02:51:56;13.38;;;10.75;;
59273;SDS011;45044;41.572;24.730;2023-07-31T02:54:23;12.45;;;10.35;;
59273;SDS011;45044;41.572;24.730;2023-07-31T02:56:50;11.13;;;9.57;;
59273;SDS011;45044;41.572;24.730;2023-07-31T02:59:17;10.88;;;9.77;;
59273;SDS011;45044;41.572;24.730;2023-07-31T03:01:44;10.57;;;9.52;;
59273;SDS011;45044;41.572;24.730;2023-07-31T03:04:11;12.18;;;9.73;;
59273;SDS011;45044;41.572;24.730;2023-07-31T03:06:38;10.25;;;9.20;;
59273;SDS011;45044;41.572;24.730;2023-07-31T03:09:05;11.07;;;9.77;;
59273;SDS011;45044;41.572;24.730;2023-07-31T03:11:32;9.77;;;8.38;;
59273;SDS011;45044;41.572;24.730;2023-07-31T03:13:59;8.82;;;7.20;;
59273;SDS011;45044;41.572;24.730;2023-07-31T03:16:25;12.57;;;6.82;;
59273;SDS011;45044;41.572;24.730;2023-07-31T03:18:52;10.73;;;7.63;;
59273;SDS011;45044;41.572;24.730;2023-07-31T03:21:19;9.90;;;7.50;;
59273;SDS011;45044;41.572;24.730;2023-07-31T03:23:46;10.38;;;8.85;;
59273;SDS011;45044;41.572;24.730;2023-07-31T03:26:13;11.70;;;9.35;;
59273;SDS011;45044;41.572;24.730;2023-07-31T03:28:40;11.35;;;9.13;;
59273;SDS011;45044;41.572;24.730;2023-07-31T03:31:06;12.55;;;9.20;;
59273;SDS011;45044;41.572;24.730;2023-07-31T03:33:34;10.32;;;7.28;;
59273;SDS011;45044;41.572;24.730;2023-07-31T03:36:01;8.65;;;6.70;;
59273;SDS011;45044;41.572;24.730;2023-07-31T03:38:28;10.75;;;8.02;;
59273;SDS011;45044;41.572;24.730;2023-07-31T03:40:55;9.63;;;8.25;;
59273;SDS011;45044;41.572;24.730;2023-07-31T03:43:22;10.95;;;8.65;;
59273;SDS011;45044;41.572;24.730;2023-07-31T03:45:48;13.50;;;8.93;;
59273;SDS011;45044;41.572;24.730;2023-07-31T03:48:15;12.10;;;9.38;;
59273;SDS011;45044;41.572;24.730;2023-07-31T03:50:42;12.13;;;9.82;;
59273;SDS011;45044;41.572;24.730;2023-07-31T03:53:09;11.10;;;9.57;;
59273;SDS011;45044;41.572;24.730;2023-07-31T03:55:36;11.77;;;9.63;;
59273;SDS011;45044;41.572;24.730;2023-07-31T03:58:03;11.80;;;8.75;;
59273;SDS011;45044;41.572;24.730;2023-07-31T04:00:30;9.93;;;8.82;;
59273;SDS011;45044;41.572;24.730;2023-07-31T04:02:57;12.05;;;9.18;;
59273;SDS011;45044;41.572;24.730;2023-07-31T04:05:24;11.68;;;10.23;;
59273;SDS011;45044;41.572;24.730;2023-07-31T04:07:50;13.13;;;9.25;;
59273;SDS011;45044;41.572;24.730;2023-07-31T04:10:17;10.70;;;9.18;;
59273;SDS011;45044;41.572;24.730;2023-07-31T04:12:44;10.98;;;9.13;;
59273;SDS011;45044;41.572;24.730;2023-07-31T04:15:11;10.95;;;9.07;;
59273;SDS011;45044;41.572;24.730;2023-07-31T04:17:37;11.18;;;9.45;;
59273;SDS011;45044;41.572;24.730;2023-07-31T04:20:04;13.10;;;10.00;;
59273;SDS011;45044;41.572;24.730;2023-07-31T04:22:32;11.48;;;9.65;;
59273;SDS011;45044;41.572;24.730;2023-07-31T04:25:01;10.73;;;9.32;;
59273;SDS011;45044;41.572;24.730;2023-07-31T04:27:27;10.82;;;9.30;;
59273;SDS011;45044;41.572;24.730;2023-07-31T04:29:54;10.52;;;8.98;;
59273;SDS011;45044;41.572;24.730;2023-07-31T04:32:21;12.55;;;9.35;;
59273;SDS011;45044;41.572;24.730;2023-07-31T04:34:48;9.95;;;8.65;;
59273;SDS011;45044;41.572;24.730;2023-07-31T04:37:15;11.80;;;9.48;;
59273;SDS011;45044;41.572;24.730;2023-07-31T04:39:41;10.10;;;8.73;;
59273;SDS011;45044;41.572;24.730;2023-07-31T04:42:08;10.13;;;8.73;;
59273;SDS011;45044;41.572;24.730;2023-07-31T04:44:35;10.77;;;9.60;;
59273;SDS011;45044;41.572;24.730;2023-07-31T04:47:02;11.35;;;8.77;;
59273;SDS011;45044;41.572;24.730;2023-07-31T04:49:29;11.32;;;8.90;;
59273;SDS011;45044;41.572;24.730;2023-07-31T04:51:56;9.60;;;8.60;;
59273;SDS011;45044;41.572;24.730;2023-07-31T04:54:22;10.65;;;9.63;;
59273;SDS011;45044;41.572;24.730;2023-07-31T04:56:52;11.13;;;9.18;;
59273;SDS011;45044;41.572;24.730;2023-07-31T04:59:19;13.00;;;9.10;;
59273;SDS011;45044;41.572;24.730;2023-07-31T05:01:46;10.80;;;9.50;;
59273;SDS011;45044;41.572;24.730;2023-07-31T05:04:13;11.75;;;10.40;;
59273;SDS011;45044;41.572;24.730;2023-07-31T05:06:41;12.70;;;9.95;;
59273;SDS011;45044;41.572;24.730;2023-07-31T05:09:08;11.05;;;9.85;;
59273;SDS011;45044;41.572;24.730;2023-07-31T05:11:38;11.93;;;9.70;;
59273;SDS011;45044;41.572;24.730;2023-07-31T05:14:06;12.07;;;10.23;;
59273;SDS011;45044;41.572;24.730;2023-07-31T05:16:34;10.77;;;9.60;;
59273;SDS011;45044;41.572;24.730;2023-07-31T05:19:01;10.07;;;8.98;;
59273;SDS011;45044;41.572;24.730;2023-07-31T05:21:27;11.02;;;9.93;;
59273;SDS011;45044;41.572;24.730;2023-07-31T05:23:54;12.30;;;9.60;;
59273;SDS011;45044;41.572;24.730;2023-07-31T05:26:22;10.93;;;9.35;;
59273;SDS011;45044;41.572;24.730;2023-07-31T05:28:49;10.63;;;9.52;;
59273;SDS011;45044;41.572;24.730;2023-07-31T05:31:16;11.70;;;9.40;;
59273;SDS011;45044;41.572;24.730;2023-07-31T05:33:42;10.63;;;8.98;;
59273;SDS011;45044;41.572;24.730;2023-07-31T05:36:10;9.38;;;8.38;;
59273;SDS011;45044;41.572;24.730;2023-07-31T05:38:37;9.88;;;7.60;;
59273;SDS011;45044;41.572;24.730;2023-07-31T05:41:06;8.80;;;7.63;;
59273;SDS011;45044;41.572;24.730;2023-07-31T05:43:33;9.18;;;7.38;;
59273;SDS011;45044;41.572;24.730;2023-07-31T05:46:00;9.85;;;7.20;;
59273;SDS011;45044;41.572;24.730;2023-07-31T05:48:31;9.55;;;7.07;;
59273;SDS011;45044;41.572;24.730;2023-07-31T05:50:58;9.73;;;7.45;;
59273;SDS011;45044;41.572;24.730;2023-07-31T05:53:25;8.43;;;6.78;;
59273;SDS011;45044;41.572;24.730;2023-07-31T05:55:52;8.15;;;6.32;;
59273;SDS011;45044;41.572;24.730;2023-07-31T05:58:18;10.15;;;7.00;;
59273;SDS011;45044;41.572;24.730;2023-07-31T06:00:46;9.05;;;7.38;;
59273;SDS011;45044;41.572;24.730;2023-07-31T06:03:13;11.20;;;8.57;;
59273;SDS011;45044;41.572;24.730;2023-07-31T06:05:40;8.52;;;6.85;;
59273;SDS011;45044;41.572;24.730;2023-07-31T06:08:07;9.15;;;6.97;;
59273;SDS011;45044;41.572;24.730;2023-07-31T06:10:34;8.85;;;6.85;;
59273;SDS011;45044;41.572;24.730;2023-07-31T06:13:01;8.15;;;5.82;;
59273;SDS011;45044;41.572;24.730;2023-07-31T06:15:28;7.85;;;6.18;;
59273;SDS011;45044;41.572;24.730;2023-07-31T06:17:55;7.72;;;6.07;;
59273;SDS011;45044;41.572;24.730;2023-07-31T06:20:22;7.68;;;6.15;;
59273;SDS011;45044;41.572;24.730;2023-07-31T06:22:49;7.78;;;5.80;;
59273;SDS011;45044;41.572;24.730;2023-07-31T06:25:15;8.25;;;6.53;;
59273;SDS011;45044;41.572;24.730;2023-07-31T06:27:43;8.98;;;6.45;;
59273;SDS011;45044;41.572;24.730;2023-07-31T06:30:10;7.32;;;5.53;;
59273;SDS011;45044;41.572;24.730;2023-07-31T06:32:37;9.05;;;6.28;;
59273;SDS011;45044;41.572;24.730;2023-07-31T06:35:04;7.72;;;5.95;;
59273;SDS011;45044;41.572;24.730;2023-07-31T06:37:32;7.43;;;5.30;;
59273;SDS011;45044;41.572;24.730;2023-07-31T06:40:02;11.57;;;6.38;;
59273;SDS011;45044;41.572;24.730;2023-07-31T06:42:32;7.85;;;6.30;;
59273;SDS011;45044;41.572;24.730;2023-07-31T06:44:58;8.32;;;6.30;;
59273;SDS011;45044;41.572;24.730;2023-07-31T06:47:25;7.00;;;5.63;;
59273;SDS011;45044;41.572;24.730;2023-07-31T06:49:52;7.90;;;5.80;;
59273;SDS011;45044;41.572;24.730;2023-07-31T06:52:19;7.45;;;5.55;;
59273;SDS011;45044;41.572;24.730;2023-07-31T06:54:59;8.95;;;6.38;;
59273;SDS011;45044;41.572;24.730;2023-07-31T06:57:27;7.50;;;6.50;;
59273;SDS011;45044;41.572;24.730;2023-07-31T06:59:55;9.85;;;7.10;;
59273;SDS011;45044;41.572;24.730;2023-07-31T07:02:22;8.75;;;6.65;;
59273;SDS011;45044;41.572;24.730;2023-07-31T07:04:49;9.45;;;7.45;;
59273;SDS011;45044;41.572;24.730;2023-07-31T07:07:16;10.32;;;8.70;;
59273;SDS011;45044;41.572;24.730;2023-07-31T07:09:43;11.20;;;7.80;;
59273;SDS011;45044;41.572;24.730;2023-07-31T07:12:10;8.48;;;6.70;;
59273;SDS011;45044;41.572;24.730;2023-07-31T07:14:37;8.13;;;6.05;;
59273;SDS011;45044;41.572;24.730;2023-07-31T07:17:03;8.77;;;6.85;;
59273;SDS011;45044;41.572;24.730;2023-07-31T07:19:31;10.10;;;6.75;;
59273;SDS011;45044;41.572;24.730;2023-07-31T07:21:57;8.68;;;6.60;;
59273;SDS011;45044;41.572;24.730;2023-07-31T07:24:27;7.97;;;6.38;;
59273;SDS011;45044;41.572;24.730;2023-07-31T07:26:55;9.40;;;6.55;;
59273;SDS011;45044;41.572;24.730;2023-07-31T07:29:21;9.57;;;6.43;;
59273;SDS011;45044;41.572;24.730;2023-07-31T07:31:48;9.38;;;6.38;;
59273;SDS011;45044;41.572;24.730;2023-07-31T07:34:15;7.15;;;5.70;;
59273;SDS011;45044;41.572;24.730;2023-07-31T07:36:42;7.63;;;5.70;;
59273;SDS011;45044;41.572;24.730;2023-07-31T07:39:11;9.52;;;5.93;;
59273;SDS011;45044;41.572;24.730;2023-07-31T07:41:38;7.10;;;5.38;;
59273;SDS011;45044;41.572;24.730;2023-07-31T07:44:06;7.50;;;6.05;;
59273;SDS011;45044;41.572;24.730;2023-07-31T07:46:39;8.88;;;6.32;;
59273;SDS011;45044;41.572;24.730;2023-07-31T07:49:06;9.38;;;6.28;;
59273;SDS011;45044;41.572;24.730;2023-07-31T07:51:33;8.18;;;5.82;;
59273;SDS011;45044;41.572;24.730;2023-07-31T07:54:00;6.65;;;5.32;;
59273;SDS011;45044;41.572;24.730;2023-07-31T07:56:28;7.15;;;4.97;;
59273;SDS011;45044;41.572;24.730;2023-07-31T07:58:59;7.20;;;5.20;;
59273;SDS011;45044;41.572;24.730;2023-07-31T08:01:26;7.75;;;5.03;;
59273;SDS011;45044;41.572;24.730;2023-07-31T08:03:54;14.07;;;6.00;;
59273;SDS011;45044;41.572;24.730;2023-07-31T08:06:21;7.72;;;4.85;;
59273;SDS011;45044;41.572;24.730;2023-07-31T08:08:49;6.55;;;4.93;;
59273;SDS011;45044;41.572;24.730;2023-07-31T08:11:16;7.78;;;4.60;;
59273;SDS011;45044;41.572;24.730;2023-07-31T08:13:43;5.75;;;4.75;;
59273;SDS011;45044;41.572;24.730;2023-07-31T08:16:10;6.72;;;4.57;;
59273;SDS011;45044;41.572;24.730;2023-07-31T08:18:37;6.50;;;4.63;;
59273;SDS011;45044;41.572;24.730;2023-07-31T08:21:04;6.35;;;5.10;;
59273;SDS011;45044;41.572;24.730;2023-07-31T08:23:31;5.65;;;4.40;;
59273;SDS011;45044;41.572;24.730;2023-07-31T08:25:58;6.32;;;4.60;;
59273;SDS011;45044;41.572;24.730;2023-07-31T08:28:27;5.90;;;4.70;;
59273;SDS011;45044;41.572;24.730;2023-07-31T08:30:54;6.40;;;4.82;;
59273;SDS011;45044;41.572;24.730;2023-07-31T08:33:21;6.50;;;5.03;;
59273;SDS011;45044;41.572;24.730;2023-07-31T08:35:50;6.80;;;4.97;;
59273;SDS011;45044;41.572;24.730;2023-07-31T08:38:18;4.90;;;4.03;;
59273;SDS011;45044;41.572;24.730;2023-07-31T08:40:46;6.18;;;4.35;;
59273;SDS011;45044;41.572;24.730;2023-07-31T08:43:16;6.28;;;4.90;;
59273;SDS011;45044;41.572;24.730;2023-07-31T08:45:44;6.43;;;4.80;;
59273;SDS011;45044;41.572;24.730;2023-07-31T08:48:12;5.15;;;4.47;;
59273;SDS011;45044;41.572;24.730;2023-07-31T08:50:40;6.82;;;5.03;;
59273;SDS011;45044;41.572;24.730;2023-07-31T08:53:10;7.65;;;5.75;;
59273;SDS011;45044;41.572;24.730;2023-07-31T08:55:38;6.47;;;5.28;;
59273;SDS011;45044;41.572;24.730;2023-07-31T08:58:05;6.63;;;5.18;;
59273;SDS011;45044;41.572;24.730;2023-07-31T09:00:33;6.82;;;5.43;;
59273;SDS011;45044;41.572;24.730;2023-07-31T09:03:02;7.43;;;5.40;;
59273;SDS011;45044;41.572;24.730;2023-07-31T09:05:30;7.50;;;5.68;;
59273;SDS011;45044;41.572;24.730;2023-07-31T09:07:58;6.40;;;5.20;;
59273;SDS011;45044;41.572;24.730;2023-07-31T09:10:27;6.25;;;5.03;;
59273;SDS011;45044;41.572;24.730;2023-07-31T09:12:54;7.43;;;5.60;;
59273;SDS011;45044;41.572;24.730;2023-07-31T09:15:22;7.32;;;6.03;;
59273;SDS011;45044;41.572;24.730;2023-07-31T09:18:05;7.57;;;5.50;;
59273;SDS011;45044;41.572;24.730;2023-07-31T09:20:33;7.95;;;5.50;;
59273;SDS011;45044;41.572;24.730;2023-07-31T09:23:07;7.05;;;5.95;;
59273;SDS011;45044;41.572;24.730;2023-07-31T09:25:43;7.68;;;5.80;;
59273;SDS011;45044;41.572;24.730;2023-07-31T09:28:11;7.82;;;5.45;;
59273;SDS011;45044;41.572;24.730;2023-07-31T09:33:30;7.47;;;5.63;;
59273;SDS011;45044;41.572;24.730;2023-07-31T09:35:58;10.35;;;5.60;;
59273;SDS011;45044;41.572;24.730;2023-07-31T09:38:26;7.50;;;5.25;;
59273;SDS011;45044;41.572;24.730;2023-07-31T09:40:56;6.75;;;5.22;;
59273;SDS011;45044;41.572;24.730;2023-07-31T09:43:25;7.10;;;5.32;;
59273;SDS011;45044;41.572;24.730;2023-07-31T09:45:55;6.93;;;5.32;;
59273;SDS011;45044;41.572;24.730;2023-07-31T09:48:24;7.47;;;5.80;;
59273;SDS011;45044;41.572;24.730;2023-07-31T09:50:54;7.03;;;5.72;;
59273;SDS011;45044;41.572;24.730;2023-07-31T09:53:27;6.93;;;5.70;;
59273;SDS011;45044;41.572;24.730;2023-07-31T09:55:59;7.55;;;5.65;;
59273;SDS011;45044;41.572;24.730;2023-07-31T09:58:28;6.97;;;5.40;;
59273;SDS011;45044;41.572;24.730;2023-07-31T10:00:57;6.95;;;5.95;;
59273;SDS011;45044;41.572;24.730;2023-07-31T10:03:26;8.23;;;5.90;;
59273;SDS011;45044;41.572;24.730;2023-07-31T10:05:58;7.88;;;6.50;;
59273;SDS011;45044;41.572;24.730;2023-07-31T10:08:30;7.20;;;6.28;;
59273;SDS011;45044;41.572;24.730;2023-07-31T10:11:01;8.20;;;6.45;;
59273;SDS011;45044;41.572;24.730;2023-07-31T10:13:30;7.50;;;6.43;;
59273;SDS011;45044;41.572;24.730;2023-07-31T10:15:58;8.43;;;6.45;;
59273;SDS011;45044;41.572;24.730;2023-07-31T10:18:27;7.57;;;6.47;;
59273;SDS011;45044;41.572;24.730;2023-07-31T10:20:55;7.43;;;6.15;;
59273;SDS011;45044;41.572;24.730;2023-07-31T10:23:24;7.25;;;5.88;;
59273;SDS011;45044;41.572;24.730;2023-07-31T10:26:00;7.95;;;6.18;;
59273;SDS011;45044;41.572;24.730;2023-07-31T10:28:29;8.32;;;6.82;;
59273;SDS011;45044;41.572;24.730;2023-07-31T10:30:57;8.18;;;6.18;;
59273;SDS011;45044;41.572;24.730;2023-07-31T10:33:26;7.68;;;6.35;;
59273;SDS011;45044;41.572;24.730;2023-07-31T10:39:00;7.43;;;6.38;;
59273;SDS011;45044;41.572;24.730;2023-07-31T10:41:35;7.10;;;6.13;;
59273;SDS011;45044;41.572;24.730;2023-07-31T10:44:03;7.60;;;5.72;;
59273;SDS011;45044;41.572;24.730;2023-07-31T10:46:35;8.20;;;6.03;;
59273;SDS011;45044;41.572;24.730;2023-07-31T10:49:04;9.43;;;6.95;;
59273;SDS011;45044;41.572;24.730;2023-07-31T10:51:35;11.02;;;7.07;;
59273;SDS011;45044;41.572;24.730;2023-07-31T10:54:13;7.80;;;6.70;;
59273;SDS011;45044;41.572;24.730;2023-07-31T10:56:45;7.82;;;6.53;;
59273;SDS011;45044;41.572;24.730;2023-07-31T10:59:17;8.90;;;5.90;;
59273;SDS011;45044;41.572;24.730;2023-07-31T11:01:51;8.77;;;6.55;;
59273;SDS011;45044;41.572;24.730;2023-07-31T11:04:24;7.20;;;6.07;;
59273;SDS011;45044;41.572;24.730;2023-07-31T11:07:00;8.65;;;6.32;;
59273;SDS011;45044;41.572;24.730;2023-07-31T11:09:30;9.05;;;6.38;;
59273;SDS011;45044;41.572;24.730;2023-07-31T11:12:01;7.72;;;5.72;;
59273;SDS011;45044;41.572;24.730;2023-07-31T11:14:29;8.50;;;6.15;;
59273;SDS011;45044;41.572;24.730;2023-07-31T11:16:57;7.47;;;6.10;;
59273;SDS011;45044;41.572;24.730;2023-07-31T11:19:24;6.72;;;5.90;;
59273;SDS011;45044;41.572;24.730;2023-07-31T11:21:52;7.10;;;6.00;;
59273;SDS011;45044;41.572;24.730;2023-07-31T11:24:19;7.85;;;6.10;;
59273;SDS011;45044;41.572;24.730;2023-07-31T11:26:48;18.48;;;8.73;;
59273;SDS011;45044;41.572;24.730;2023-07-31T11:29:19;10.98;;;6.53;;
59273;SDS011;45044;41.572;24.730;2023-07-31T11:31:49;7.20;;;6.13;;
59273;SDS011;45044;41.572;24.730;2023-07-31T11:34:17;8.57;;;6.20;;
59273;SDS011;45044;41.572;24.730;2023-07-31T11:36:54;7.93;;;6.90;;
59273;SDS011;45044;41.572;24.730;2023-07-31T11:39:24;7.95;;;6.93;;
59273;SDS011;45044;41.572;24.730;2023-07-31T11:41:51;8.05;;;6.38;;
59273;SDS011;45044;41.572;24.730;2023-07-31T11:44:18;8.15;;;6.65;;
59273;SDS011;45044;41.572;24.730;2023-07-31T11:46:55;13.68;;;7.57;;
59273;SDS011;45044;41.572;24.730;2023-07-31T11:49:24;15.25;;;9.02;;
59273;SDS011;45044;41.572;24.730;2023-07-31T11:51:52;13.63;;;9.52;;
59273;SDS011;45044;41.572;24.730;2023-07-31T11:54:19;12.85;;;7.53;;
59273;SDS011;45044;41.572;24.730;2023-07-31T11:56:47;10.48;;;7.35;;
59273;SDS011;45044;41.572;24.730;2023-07-31T11:59:14;9.45;;;7.00;;
59273;SDS011;45044;41.572;24.730;2023-07-31T12:01:44;8.70;;;7.10;;
59273;SDS011;45044;41.572;24.730;2023-07-31T12:04:12;9.88;;;7.22;;
59273;SDS011;45044;41.572;24.730;2023-07-31T12:06:39;13.75;;;7.97;;
59273;SDS011;45044;41.572;24.730;2023-07-31T12:09:06;7.53;;;5.72;;
59273;SDS011;45044;41.572;24.730;2023-07-31T12:11:52;8.30;;;6.28;;
59273;SDS011;45044;41.572;24.730;2023-07-31T12:14:19;8.10;;;7.00;;
59273;SDS011;45044;41.572;24.730;2023-07-31T12:16:58;8.48;;;6.72;;
59273;SDS011;45044;41.572;24.730;2023-07-31T12:19:27;7.45;;;6.65;;
59273;SDS011;45044;41.572;24.730;2023-07-31T12:21:56;8.25;;;7.00;;
59273;SDS011;45044;41.572;24.730;2023-07-31T12:24:26;8.90;;;7.57;;
59273;SDS011;45044;41.572;24.730;2023-07-31T12:27:07;9.77;;;7.18;;
59273;SDS011;45044;41.572;24.730;2023-07-31T12:29:35;9.27;;;7.50;;
59273;SDS011;45044;41.572;24.730;2023-07-31T12:32:22;8.93;;;7.25;;
59273;SDS011;45044;41.572;24.730;2023-07-31T12:34:51;9.07;;;7.72;;
59273;SDS011;45044;41.572;24.730;2023-07-31T12:37:18;12.15;;;8.98;;
59273;SDS011;45044;41.572;24.730;2023-07-31T12:39:49;10.55;;;8.52;;
59273;SDS011;45044;41.572;24.730;2023-07-31T12:42:23;9.38;;;7.90;;
59273;SDS011;45044;41.572;24.730;2023-07-31T12:44:51;11.10;;;9.32;;
59273;SDS011;45044;41.572;24.730;2023-07-31T12:47:18;10.07;;;8.98;;
59273;SDS011;45044;41.572;24.730;2023-07-31T12:49:45;10.65;;;9.18;;
59273;SDS011;45044;41.572;24.730;2023-07-31T12:52:20;11.82;;;10.40;;
59273;SDS011;45044;41.572;24.730;2023-07-31T12:54:46;10.88;;;9.68;;
59273;SDS011;45044;41.572;24.730;2023-07-31T12:57:13;11.05;;;9.88;;
59273;SDS011;45044;41.572;24.730;2023-07-31T12:59:41;10.88;;;9.52;;
59273;SDS011;45044;41.572;24.730;2023-07-31T13:02:08;11.15;;;10.05;;
59273;SDS011;45044;41.572;24.730;2023-07-31T13:04:35;10.02;;;8.70;;
59273;SDS011;45044;41.572;24.730;2023-07-31T13:07:03;11.05;;;9.15;;
59273;SDS011;45044;41.572;24.730;2023-07-31T13:09:30;11.02;;;9.50;;
59273;SDS011;45044;41.572;24.730;2023-07-31T13:11:57;11.25;;;10.05;;
59273;SDS011;45044;41.572;24.730;2023-07-31T13:14:25;12.38;;;10.80;;
59273;SDS011;45044;41.572;24.730;2023-07-31T13:16:55;11.75;;;10.55;;
59273;SDS011;45044;41.572;24.730;2023-07-31T13:19:22;12.18;;;10.32;;
59273;SDS011;45044;41.572;24.730;2023-07-31T13:21:52;12.05;;;9.93;;
59273;SDS011;45044;41.572;24.730;2023-07-31T13:24:19;11.98;;;9.43;;
59273;SDS011;45044;41.572;24.730;2023-07-31T13:26:46;13.38;;;11.25;;
59273;SDS011;45044;41.572;24.730;2023-07-31T13:29:16;12.35;;;11.05;;
59273;SDS011;45044;41.572;24.730;2023-07-31T13:31:43;13.00;;;10.50;;
59273;SDS011;45044;41.572;24.730;2023-07-31T13:34:10;13.98;;;10.88;;
59273;SDS011;45044;41.572;24.730;2023-07-31T13:36:39;12.20;;;10.20;;
59273;SDS011;45044;41.572;24.730;2023-07-31T13:39:11;13.20;;;11.20;;
59273;SDS011;45044;41.572;24.730;2023-07-31T13:41:39;12.13;;;9.85;;
59273;SDS011;45044;41.572;24.730;2023-07-31T13:44:20;12.18;;;10.25;;
59273;SDS011;45044;41.572;24.730;2023-07-31T13:46:47;11.02;;;9.90;;
59273;SDS011;45044;41.572;24.730;2023-07-31T13:49:14;11.57;;;10.38;;
59273;SDS011;45044;41.572;24.730;2023-07-31T13:51:43;10.95;;;9.40;;
59273;SDS011;45044;41.572;24.730;2023-07-31T13:54:10;12.20;;;10.82;;
59273;SDS011;45044;41.572;24.730;2023-07-31T13:56:38;11.55;;;10.38;;
59273;SDS011;45044;41.572;24.730;2023-07-31T13:59:08;12.02;;;10.82;;
59273;SDS011;45044;41.572;24.730;2023-07-31T14:01:35;11.95;;;10.27;;
59273;SDS011;45044;41.572;24.730;2023-07-31T14:04:02;13.32;;;11.20;;
59273;SDS011;45044;41.572;24.730;2023-07-31T14:06:29;13.00;;;10.82;;
59273;SDS011;45044;41.572;24.730;2023-07-31T14:08:56;14.77;;;13.15;;
59273;SDS011;45044;41.572;24.730;2023-07-31T14:11:24;14.18;;;12.63;;
59273;SDS011;45044;41.572;24.730;2023-07-31T14:13:52;13.43;;;11.00;;
59273;SDS011;45044;41.572;24.730;2023-07-31T14:16:20;12.95;;;11.55;;
59273;SDS011;45044;41.572;24.730;2023-07-31T14:18:47;13.90;;;12.40;;
59273;SDS011;45044;41.572;24.730;2023-07-31T14:21:14;13.65;;;11.95;;
59273;SDS011;45044;41.572;24.730;2023-07-31T14:23:42;14.55;;;11.48;;
59273;SDS011;45044;41.572;24.730;2023-07-31T14:26:08;13.70;;;11.63;;
59273;SDS011;45044;41.572;24.730;2023-07-31T14:28:35;14.60;;;12.07;;
59273;SDS011;45044;41.572;24.730;2023-07-31T14:31:02;14.10;;;11.20;;
59273;SDS011;45044;41.572;24.730;2023-07-31T14:33:29;14.98;;;12.18;;
59273;SDS011;45044;41.572;24.730;2023-07-31T14:35:56;13.98;;;12.48;;
59273;SDS011;45044;41.572;24.730;2023-07-31T14:38:23;12.38;;;11.07;;
59273;SDS011;45044;41.572;24.730;2023-07-31T14:40:50;14.05;;;12.20;;
59273;SDS011;45044;41.572;24.730;2023-07-31T14:43:20;13.10;;;11.70;;
59273;SDS011;45044;41.572;24.730;2023-07-31T14:45:47;12.15;;;10.30;;